Map

Track Data

SID SEASON NUMBER BASIN SUBBASIN NAME ISO_TIME NATURE LAT LON WMO_WIND WMO_PRES WMO_AGENCY TRACK_TYPE DIST2LAND LANDFALL IFLAG USA_AGENCY USA_ATCF_ID USA_LAT USA_LON USA_RECORD USA_STATUS USA_WIND USA_PRES USA_SSHS USA_R34_NE USA_R34_SE USA_R34_SW USA_R34_NW USA_R50_NE USA_R50_SE USA_R50_SW USA_R50_NW USA_R64_NE USA_R64_SE USA_R64_SW USA_R64_NW USA_POCI USA_ROCI USA_RMW USA_EYE TOKYO_LAT TOKYO_LON TOKYO_GRADE TOKYO_WIND TOKYO_PRES TOKYO_R50_DIR TOKYO_R50_LONG TOKYO_R50_SHORT TOKYO_R30_DIR TOKYO_R30_LONG TOKYO_R30_SHORT TOKYO_LAND CMA_LAT CMA_LON CMA_CAT CMA_WIND CMA_PRES HKO_LAT HKO_LON HKO_CAT HKO_WIND HKO_PRES NEWDELHI_LAT NEWDELHI_LON NEWDELHI_GRADE NEWDELHI_WIND NEWDELHI_PRES NEWDELHI_CI NEWDELHI_DP NEWDELHI_POCI REUNION_LAT REUNION_LON REUNION_TYPE REUNION_WIND REUNION_PRES REUNION_TNUM REUNION_CI REUNION_RMW REUNION_R34_NE REUNION_R34_SE REUNION_R34_SW REUNION_R34_NW REUNION_R50_NE REUNION_R50_SE REUNION_R50_SW REUNION_R50_NW REUNION_R64_NE REUNION_R64_SE REUNION_R64_SW REUNION_R64_NW BOM_LAT BOM_LON BOM_TYPE BOM_WIND BOM_PRES BOM_TNUM BOM_CI BOM_RMW BOM_R34_NE BOM_R34_SE BOM_R34_SW BOM_R34_NW BOM_R50_NE BOM_R50_SE BOM_R50_SW BOM_R50_NW BOM_R64_NE BOM_R64_SE BOM_R64_SW BOM_R64_NW BOM_ROCI BOM_POCI BOM_EYE BOM_POS_METHOD BOM_PRES_METHOD NADI_LAT NADI_LON NADI_CAT NADI_WIND NADI_PRES WELLINGTON_LAT WELLINGTON_LON WELLINGTON_WIND WELLINGTON_PRES DS824_LAT DS824_LON DS824_STAGE DS824_WIND DS824_PRES TD9636_LAT TD9636_LON TD9636_STAGE TD9636_WIND TD9636_PRES TD9635_LAT TD9635_LON TD9635_WIND TD9635_PRES TD9635_ROCI NEUMANN_LAT NEUMANN_LON NEUMANN_CLASS NEUMANN_WIND NEUMANN_PRES MLC_LAT MLC_LON MLC_CLASS MLC_WIND MLC_PRES USA_GUST BOM_GUST BOM_GUST_PER REUNION_GUST REUNION_GUST_PER USA_SEAHGT USA_SEARAD_NE USA_SEARAD_SE USA_SEARAD_SW USA_SEARAD_NW STORM_SPEED STORM_DIR
1896206N18116 1896 19 WP MM NOT_NAMED 1896-07-23 16:00:00 NR 18.4000 116.000 main 463 463 __________O___ -1 18.4000 116.000 7 4 274
1896206N18116 1896 19 WP MM NOT_NAMED 1896-07-23 18:00:00 NR 18.4091 115.875 main 466 459 __________P___ -1 18.4091 115.875 7 4 275
1896206N18116 1896 19 WP MM NOT_NAMED 1896-07-23 21:00:00 NR 18.4255 115.678 main 459 453 __________P___ -1 18.4255 115.678 7 4 276
1896206N18116 1896 19 WP MM NOT_NAMED 1896-07-24 00:00:00 NR 18.4493 115.457 main 453 435 __________P___ -1 18.4493 115.457 7 5 277
1896206N18116 1896 19 WP MM NOT_NAMED 1896-07-24 03:00:00 NR 18.4848 115.197 main 435 433 __________P___ -1 18.4848 115.197 7 5 279
1896206N18116 1896 19 WP MM NOT_NAMED 1896-07-24 04:00:00 NR 18.5000 115.100 main 433 427 __________O___ -1 18.5000 115.100 7 6 280
1896206N18116 1896 19 WP MM NOT_NAMED 1896-07-24 06:00:00 NR 18.5360 114.887 main 427 384 __________P___ -1 18.5360 114.887 7 7 281
1896206N18116 1896 19 WP MM NOT_NAMED 1896-07-24 09:00:00 NR 18.6025 114.529 main 384 340 __________P___ -1 18.6025 114.529 7 7 282
1896206N18116 1896 19 WP MM NOT_NAMED 1896-07-24 12:00:00 NR 18.6813 114.140 main 340 297 __________P___ -1 18.6813 114.140 7 8 282
1896206N18116 1896 19 WP MM NOT_NAMED 1896-07-24 15:00:00 NR 18.7692 113.736 main 297 287 __________P___ -1 18.7692 113.736 7 8 283
1896206N18116 1896 19 WP MM NOT_NAMED 1896-07-24 16:00:00 NR 18.8000 113.600 main 287 253 __________O___ -1 18.8000 113.600 3 8 283
1896206N18116 1896 19 WP MM NOT_NAMED 1896-07-24 18:00:00 NR 18.8530 113.336 main 253 214 __________P___ -1 18.8530 113.336 3 8 282
1896206N18116 1896 19 WP MM NOT_NAMED 1896-07-24 21:00:00 NR 18.9387 112.934 main 214 171 __________P___ -1 18.9387 112.934 3 8 284
1896206N18116 1896 19 WP MM NOT_NAMED 1896-07-25 00:00:00 NR 19.0374 112.531 main 171 123 __________P___ -1 19.0374 112.531 3 8 286
1896206N18116 1896 19 WP MM NOT_NAMED 1896-07-25 03:00:00 NR 19.1553 112.131 main 123 114 __________P___ -1 19.1553 112.131 3 8 288
1896206N18116 1896 19 WP MM NOT_NAMED 1896-07-25 04:00:00 NR 19.2000 112.000 main 114 80 __________O___ -1 19.2000 112.000 4 8 291
1896206N18116 1896 19 WP MM NOT_NAMED 1896-07-25 06:00:00 NR 19.2968 111.734 main 80 33 __________P___ -1 19.2968 111.734 4 8 293
1896206N18116 1896 19 WP MM NOT_NAMED 1896-07-25 09:00:00 NR 19.4611 111.341 main 33 0 __________P___ -1 19.4611 111.341 4 8 295
1896206N18116 1896 19 WP MM NOT_NAMED 1896-07-25 12:00:00 NR 19.6424 110.963 main 0 0 __________P___ -1 19.6424 110.963 4 8 299
1896206N18116 1896 19 WP MM NOT_NAMED 1896-07-25 15:00:00 NR 19.8346 110.610 main 0 0 __________P___ -1 19.8346 110.610 4 8 301
1896206N18116 1896 19 WP MM NOT_NAMED 1896-07-25 16:00:00 NR 19.9000 110.500 main 0 0 __________O___ -1 19.9000 110.500 4 7 303
1896206N18116 1896 19 WP MM NOT_NAMED 1896-07-25 18:00:00 NR 20.0317 110.291 main 0 0 __________P___ -1 20.0317 110.291 4 7 305
1896206N18116 1896 19 WP MM NOT_NAMED 1896-07-25 21:00:00 NR 20.2309 110.003 main 10 0 __________P___ -1 20.2309 110.003 4 7 308
1896206N18116 1896 19 WP MM NOT_NAMED 1896-07-26 00:00:00 NR 20.4315 109.737 main 15 10 __________P___ -1 20.4315 109.737 4 6 310
1896206N18116 1896 19 WP MM NOT_NAMED 1896-07-26 03:00:00 NR 20.6329 109.484 main 30 23 __________P___ -1 20.6329 109.484 4 6 310
1896206N18116 1896 19 WP MM NOT_NAMED 1896-07-26 04:00:00 NR 20.7000 109.400 main 33 __________O___ -1 20.7000 109.400 4 6 310

Digital Typhoon Data and Search

About IBTrACS Database

This database is a web-friendly format of International Best Track Archive for Climate Stewardship (IBTrACS), a global best track data archive curated by NOAA dating back to 1842.

Updated: 2021-10-21